Time;durP1;ratioP1;P1;durP2;ratioP2;P2;SDS_P1;SDS_P2;PMS_P1;PMS_P2;Temp;Humidity;BMP_temperature;BMP_pressure;BME280_temperature;BME280_humidity;BME280_pressure;Samples;Min_cycle;Max_cycle;Signal;HPM_P1;HPM_P2
2022/03/16 00:00:59;;;;;;;8.90;6.17;;;;;;;6.60;53.35;95466.50;5035341;28;20296;-59
2022/03/16 00:03:25;;;;;;;11.03;6.63;;;;;;;6.69;53.86;95458.38;5035739;28;20178;-62
2022/03/16 00:05:50;;;;;;;11.67;6.53;;;;;;;6.74;53.66;95466.53;5035212;28;20221;-61
2022/03/16 00:08:16;;;;;;;9.93;6.13;;;;;;;6.63;54.57;95448.63;5035624;28;20185;-63
2022/03/16 00:10:41;;;;;;;11.87;6.40;;;;;;;6.65;53.02;95461.97;5017705;28;20281;-63
2022/03/16 00:13:06;;;;;;;10.77;6.33;;;;;;;6.87;53.87;95468.34;5035410;28;20193;-61
2022/03/16 00:15:32;;;;;;;10.60;6.30;;;;;;;6.96;52.75;95473.69;5035198;28;20202;-60
2022/03/16 00:17:57;;;;;;;11.27;5.77;;;;;;;6.97;52.44;95484.63;5035192;28;20196;-61
2022/03/16 00:20:23;;;;;;;9.70;5.97;;;;;;;6.84;52.35;95471.84;5017048;28;20209;-63
2022/03/16 00:22:48;;;;;;;11.17;6.67;;;;;;;6.83;51.73;95489.63;5017227;28;20216;-61
2022/03/16 00:25:14;;;;;;;12.33;6.40;;;;;;;6.39;52.58;95475.25;5034850;28;20695;-62
2022/03/16 00:27:39;;;;;;;11.73;6.47;;;;;;;6.36;53.15;95454.41;5035366;28;20186;-61
2022/03/16 00:30:05;;;;;;;11.93;6.10;;;;;;;6.45;52.71;95462.28;5016903;28;20201;-61
2022/03/16 00:32:30;;;;;;;10.77;5.90;;;;;;;6.41;53.45;95444.84;5035006;28;20668;-60
2022/03/16 00:34:56;;;;;;;12.43;6.83;;;;;;;6.60;52.86;95453.03;5034965;28;20183;-60
2022/03/16 00:37:21;;;;;;;11.53;6.33;;;;;;;6.61;53.89;95439.50;5034630;28;20200;-63
2022/03/16 00:39:47;;;;;;;13.07;6.60;;;;;;;6.42;54.69;95429.59;5016938;28;20185;-60
2022/03/16 00:42:12;;;;;;;11.43;6.23;;;;;;;6.66;54.92;95420.66;5034754;28;20217;-61
2022/03/16 00:44:38;;;;;;;10.53;6.53;;;;;;;6.68;53.80;95413.81;5034603;28;20770;-59
2022/03/16 00:47:04;;;;;;;11.87;7.07;;;;;;;6.63;53.21;95418.31;5034311;28;20201;-62
2022/03/16 00:49:29;;;;;;;13.47;7.07;;;;;;;6.49;53.41;95413.22;5034376;28;20165;-60
2022/03/16 00:51:55;;;;;;;11.43;6.80;;;;;;;6.43;53.91;95397.59;5016563;28;20234;-64
2022/03/16 00:54:20;;;;;;;10.07;6.37;;;;;;;6.53;53.35;95414.69;5016610;28;20253;-62
2022/03/16 00:56:46;;;;;;;14.03;6.80;;;;;;;6.53;51.91;95422.25;5016443;28;20206;-60
2022/03/16 00:59:11;;;;;;;10.33;6.17;;;;;;;6.56;52.61;95404.41;5034521;28;20185;-61
2022/03/16 01:01:37;;;;;;;10.20;6.10;;;;;;;6.63;52.51;95402.31;5034057;28;20743;-59
2022/03/16 01:04:03;;;;;;;11.40;6.20;;;;;;;6.59;51.83;95419.38;5016228;28;20636;-61
2022/03/16 01:06:28;;;;;;;8.50;5.40;;;;;;;6.67;52.67;95418.94;5034210;28;20201;-64
2022/03/16 01:08:54;;;;;;;9.23;6.07;;;;;;;6.57;51.83;95408.53;5016508;28;20192;-63
2022/03/16 01:11:20;;;;;;;11.70;6.87;;;;;;;6.60;52.27;95405.88;5016120;28;20291;-61
2022/03/16 01:13:45;;;;;;;10.57;6.37;;;;;;;6.32;53.00;95385.56;5034791;28;20185;-61
2022/03/16 01:16:12;;;;;;;9.43;5.70;;;;;;;6.17;53.64;95361.19;5033693;28;20209;-61
2022/03/16 01:18:37;;;;;;;13.30;5.73;;;;;;;5.99;54.63;95349.63;5015885;28;20596;-64
2022/03/16 01:21:07;;;;;;;11.60;6.40;;;;;;;6.01;54.67;95347.81;5033947;28;20200;-62
2022/03/16 01:23:34;;;;;;;9.43;6.30;;;;;;;5.94;55.49;95333.91;5034601;28;20194;-64
2022/03/16 01:26:01;;;;;;;9.43;6.27;;;;;;;5.68;56.43;95329.47;5033594;28;20677;-61
2022/03/16 01:28:26;;;;;;;9.23;6.23;;;;;;;5.87;55.70;95335.16;5034283;28;20676;-60
2022/03/16 01:30:52;;;;;;;12.47;6.13;;;;;;;5.82;55.40;95332.03;5033542;28;20197;-61
2022/03/16 01:33:17;;;;;;;8.80;5.47;;;;;;;5.84;55.03;95327.75;5033930;28;20184;-62
2022/03/16 01:35:51;;;;;;;12.53;6.43;;;;;;;5.80;55.28;95306.09;5033652;28;20612;-63
2022/03/16 01:38:17;;;;;;;8.37;5.53;;;;;;;5.80;56.62;95306.09;5033900;28;20180;-61
2022/03/16 01:40:42;;;;;;;10.97;6.33;;;;;;;5.88;56.07;95324.97;5033436;28;20262;-61
2022/03/16 01:43:08;;;;;;;11.40;5.23;;;;;;;6.04;55.24;95329.19;5040144;23;20228;-63
2022/03/16 01:45:33;;;;;;;10.03;5.93;;;;;;;6.21;55.42;95332.38;5033366;28;20242;-59
2022/03/16 01:47:59;;;;;;;10.70;6.73;;;;;;;6.20;56.14;95329.94;5034065;28;20193;-61
2022/03/16 01:50:24;;;;;;;9.70;6.23;;;;;;;6.18;55.56;95324.16;5033153;28;20204;-62
2022/03/16 01:52:50;;;;;;;10.47;6.37;;;;;;;6.31;54.73;95322.56;5033876;28;20275;-62
2022/03/16 01:55:16;;;;;;;11.43;5.90;;;;;;;6.33;54.19;95328.31;5033251;28;20275;-64
2022/03/16 01:57:47;;;;;;;10.60;6.23;;;;;;;6.31;54.33;95338.53;5033479;28;20192;-61
2022/03/16 02:00:13;;;;;;;9.47;5.90;;;;;;;6.29;54.87;95330.22;5032936;28;20196;-64
2022/03/16 02:02:39;;;;;;;14.93;7.07;;;;;;;6.22;54.98;95318.84;5033345;28;20624;-61
2022/03/16 02:05:05;;;;;;;10.43;5.73;;;;;;;6.24;55.30;95316.25;5032887;28;20662;-63
2022/03/16 02:07:30;;;;;;;9.13;6.13;;;;;;;6.26;56.19;95304.34;5033251;28;20233;-59
2022/03/16 02:09:59;;;;;;;13.87;6.73;;;;;;;6.45;55.16;95315.81;5014664;28;20185;-64
2022/03/16 02:12:24;;;;;;;10.37;6.67;;;;;;;6.47;55.17;95308.97;5033342;28;20201;-63
2022/03/16 02:14:50;;;;;;;11.73;6.73;;;;;;;6.24;56.03;95296.03;5032943;28;20708;-62
2022/03/16 02:17:15;;;;;;;11.57;6.97;;;;;;;6.37;55.32;95297.75;5033149;28;20190;-65
2022/03/16 02:19:41;;;;;;;12.73;7.30;;;;;;;6.29;55.87;95292.34;5039027;23;20540;-61
2022/03/16 02:22:09;;;;;;;19.20;7.67;;;;;;;6.46;55.47;95309.88;5033014;28;20197;-64
2022/03/16 02:24:35;;;;;;;10.47;6.50;;;;;;;6.51;54.83;95314.63;5032992;28;20221;-62
2022/03/16 02:27:00;;;;;;;11.13;6.60;;;;;;;6.50;55.46;95306.28;5032861;28;20677;-61
2022/03/16 02:29:26;;;;;;;12.27;6.90;;;;;;;6.50;55.14;95303.75;5032912;28;20196;-62
2022/03/16 02:31:51;;;;;;;12.23;6.97;;;;;;;6.74;55.29;95292.19;5032557;28;20200;-60
2022/03/16 02:34:17;;;;;;;10.27;7.03;;;;;;;6.69;55.88;95289.09;5032522;28;20215;-61
2022/03/16 02:36:43;;;;;;;12.70;7.10;;;;;;;6.57;57.11;95274.69;5032691;28;20287;-62
2022/03/16 02:39:08;;;;;;;9.63;6.40;;;;;;;6.55;56.85;95280.72;5033127;28;20651;-63
2022/03/16 02:41:34;;;;;;;9.37;6.50;;;;;;;6.43;56.46;95284.78;5032305;28;20193;-62
2022/03/16 02:43:59;;;;;;;13.23;6.83;;;;;;;6.43;56.08;95278.91;5032835;28;20224;-60
2022/03/16 02:46:25;;;;;;;12.67;6.63;;;;;;;6.31;56.54;95272.88;5032280;28;20277;-62
2022/03/16 02:48:50;;;;;;;11.83;6.47;;;;;;;6.30;56.12;95288.13;5032898;28;20629;-63
2022/03/16 02:51:16;;;;;;;11.13;6.03;;;;;;;6.48;56.52;95282.00;5014594;28;20292;-62
2022/03/16 02:53:41;;;;;;;10.10;6.63;;;;;;;6.42;56.12;95274.78;5014964;28;20249;-59
2022/03/16 02:56:07;;;;;;;12.30;7.30;;;;;;;6.35;56.60;95273.50;5032370;28;20208;-61
2022/03/16 02:58:33;;;;;;;16.53;7.43;;;;;;;6.34;56.34;95272.69;5032586;28;20192;-62
2022/03/16 03:00:58;;;;;;;18.83;6.90;;;;;;;6.43;56.37;95272.16;5032050;28;20193;-60
2022/03/16 03:03:24;;;;;;;13.00;7.00;;;;;;;6.47;55.87;95262.69;5014524;28;20259;-63
2022/03/16 03:05:51;;;;;;;10.73;7.03;;;;;;;6.29;56.33;95266.28;5014401;28;20286;-61
2022/03/16 03:08:17;;;;;;;11.90;7.13;;;;;;;6.45;56.26;95259.44;5032151;28;20288;-63
2022/03/16 03:10:42;;;;;;;13.60;6.93;;;;;;;6.51;56.11;95257.38;5032204;28;20259;-65
2022/03/16 03:13:08;;;;;;;14.10;7.87;;;;;;;6.31;55.87;95254.38;5014082;28;20722;-60
2022/03/16 03:15:34;;;;;;;11.77;6.93;;;;;;;6.34;56.13;95247.44;5013858;28;20197;-61
2022/03/16 03:17:59;;;;;;;12.83;6.83;;;;;;;6.20;56.45;95244.91;5031961;28;20215;-62
2022/03/16 03:20:25;;;;;;;11.23;6.63;;;;;;;6.18;56.63;95238.34;5031599;28;20204;-64
2022/03/16 03:22:50;;;;;;;11.83;6.57;;;;;;;6.17;56.93;95229.94;5031525;28;20190;-60
2022/03/16 03:25:16;;;;;;;12.93;6.50;;;;;;;6.17;56.67;95240.06;5031474;28;20221;-64
2022/03/16 03:27:42;;;;;;;12.07;7.50;;;;;;;6.15;56.16;95243.56;5032131;28;20254;-61
2022/03/16 03:30:09;;;;;;;13.13;6.60;;;;;;;6.09;56.50;95246.44;5031898;28;20284;-60
2022/03/16 03:32:34;;;;;;;9.03;6.33;;;;;;;6.09;56.44;95243.91;5013982;28;20639;-62
2022/03/16 03:35:00;;;;;;;10.67;6.70;;;;;;;6.10;56.77;95243.03;5013892;28;20217;-61
2022/03/16 03:37:27;;;;;;;10.63;6.50;;;;;;;6.03;56.86;95247.59;5031612;28;20185;-62
2022/03/16 03:39:53;;;;;;;11.70;6.77;;;;;;;6.08;56.51;95248.13;5031887;28;20258;-61
2022/03/16 03:42:19;;;;;;;11.37;6.80;;;;;;;5.93;57.04;95247.34;5031684;28;20284;-61
2022/03/16 03:44:44;;;;;;;11.43;6.87;;;;;;;5.87;57.48;95231.72;5031625;28;20203;-62
2022/03/16 03:47:10;;;;;;;10.87;6.57;;;;;;;5.89;57.72;95222.34;5031699;28;20201;-60
2022/03/16 03:49:38;;;;;;;14.77;6.20;;;;;;;6.04;57.92;95223.19;5013944;28;20641;-59
2022/03/16 03:52:05;;;;;;;10.60;6.47;;;;;;;5.89;58.91;95217.31;4997416;28;20257;-64
2022/03/16 03:54:31;;;;;;;13.10;6.57;;;;;;;6.01;58.37;95221.66;5031749;28;20616;-66
2022/03/16 03:56:57;;;;;;;12.33;6.97;;;;;;;5.95;59.07;95204.34;5031561;28;20267;-60
2022/03/16 03:59:23;;;;;;;9.17;5.83;;;;;;;6.00;58.63;95212.44;5031612;28;20189;-59
2022/03/16 04:01:49;;;;;;;12.70;6.63;;;;;;;6.25;58.89;95221.94;5031283;28;20204;-63
2022/03/16 04:04:15;;;;;;;10.87;6.57;;;;;;;6.27;58.23;95226.00;5031694;28;20235;-64
2022/03/16 04:06:41;;;;;;;9.53;6.00;;;;;;;6.23;58.67;95218.69;5031172;28;20676;-61
2022/03/16 04:09:06;;;;;;;10.87;6.10;;;;;;;6.26;59.12;95216.00;5031926;28;20196;-64
2022/03/16 04:11:32;;;;;;;12.90;6.90;;;;;;;6.35;58.20;95228.88;5031554;28;20606;-63
2022/03/16 04:13:58;;;;;;;10.63;6.40;;;;;;;6.45;58.67;95217.31;5031917;28;20670;-60
2022/03/16 04:16:25;;;;;;;12.63;6.73;;;;;;;6.72;58.28;95213.16;5031228;28;20648;-63
2022/03/16 04:18:50;;;;;;;13.00;6.90;;;;;;;6.47;59.12;95204.59;5013448;28;20666;-60
2022/03/16 04:21:16;;;;;;;17.13;8.47;;;;;;;6.47;59.27;95207.94;5031341;28;20275;-59
2022/03/16 04:23:41;;;;;;;14.70;6.67;;;;;;;6.50;58.69;95212.00;5031812;28;20197;-66
2022/03/16 04:26:07;;;;;;;14.97;7.40;;;;;;;6.72;57.57;95214.88;5013332;28;20216;-63
2022/03/16 04:28:33;;;;;;;14.73;7.27;;;;;;;6.64;57.66;95212.81;5013769;28;20217;-64
2022/03/16 04:31:00;;;;;;;11.00;6.83;;;;;;;6.61;57.64;95210.44;5031183;28;20634;-65
2022/03/16 04:33:26;;;;;;;13.67;6.90;;;;;;;6.44;57.22;95213.19;5033983;28;20248;-61
2022/03/16 04:35:52;;;;;;;11.97;7.17;;;;;;;6.41;57.53;95205.78;5034787;28;20584;-62
2022/03/16 04:38:18;;;;;;;10.10;6.77;;;;;;;6.33;58.16;95200.38;5035173;28;20560;-64
2022/03/16 04:40:43;;;;;;;11.97;7.27;;;;;;;6.32;57.87;95203.78;5034618;28;20196;-64
2022/03/16 04:43:09;;;;;;;19.93;7.10;;;;;;;6.29;58.13;95201.47;5034682;28;20242;-65
2022/03/16 04:45:37;;;;;;;13.00;7.33;;;;;;;6.34;58.15;95194.41;5016832;28;20232;-59
2022/03/16 04:48:03;;;;;;;14.67;7.47;;;;;;;6.34;57.36;95202.00;5035064;28;20269;-62
2022/03/16 04:50:29;;;;;;;15.47;7.70;;;;;;;6.36;56.04;95212.03;5016814;28;20212;-62
2022/03/16 04:52:54;;;;;;;12.70;6.87;;;;;;;6.30;57.84;95187.94;5016607;28;20666;-62
2022/03/16 04:55:19;;;;;;;12.97;6.80;;;;;;;6.36;56.89;95202.72;5034492;28;20208;-61
2022/03/16 04:57:45;;;;;;;13.00;6.90;;;;;;;6.47;56.42;95204.59;5016738;28;20196;-63
2022/03/16 05:00:11;;;;;;;20.03;8.57;;;;;;;6.47;57.05;95191.97;5034214;28;20204;-63
2022/03/16 05:02:37;;;;;;;14.87;7.60;;;;;;;6.50;56.80;95192.63;5034523;28;20689;-61
2022/03/16 05:05:03;;;;;;;11.93;6.90;;;;;;;6.39;57.08;95187.41;5033944;28;20208;-61
2022/03/16 05:07:29;;;;;;;10.40;6.90;;;;;;;6.56;56.42;95191.44;5034349;28;20219;-60
2022/03/16 05:09:55;;;;;;;14.27;7.40;;;;;;;6.47;56.66;95181.88;5034216;28;20182;-62
2022/03/16 05:12:20;;;;;;;14.57;7.10;;;;;;;6.28;57.12;95182.16;5034031;28;20223;-59
2022/03/16 05:14:47;;;;;;;10.77;6.53;;;;;;;6.30;56.70;95177.81;5034209;28;20782;-64
2022/03/16 05:17:12;;;;;;;12.43;7.80;;;;;;;6.20;57.18;95181.00;5033982;28;20657;-61
2022/03/16 05:19:37;;;;;;;12.50;7.23;;;;;;;6.01;58.10;95165.31;5034238;28;20643;-60
2022/03/16 05:22:03;;;;;;;10.93;6.40;;;;;;;6.11;57.43;95174.78;5033692;28;20210;-66
2022/03/16 05:24:28;;;;;;;10.83;6.23;;;;;;;6.06;57.88;95165.88;5015760;28;20209;-64
2022/03/16 05:26:54;;;;;;;13.60;6.13;;;;;;;6.06;58.25;95164.13;5015878;28;20258;-62
2022/03/16 05:29:20;;;;;;;10.80;6.47;;;;;;;6.12;58.10;95163.78;5016034;28;20170;-65
2022/03/16 05:31:45;;;;;;;16.13;6.80;;;;;;;6.13;58.17;95157.84;5033680;28;20197;-61
2022/03/16 05:34:11;;;;;;;12.27;6.53;;;;;;;6.23;57.77;95158.09;5034352;28;20227;-62
2022/03/16 05:36:37;;;;;;;13.43;6.73;;;;;;;6.23;57.48;95161.44;5040073;23;20285;-64
2022/03/16 05:39:04;;;;;;;12.27;6.50;;;;;;;6.21;57.91;95143.06;5033515;28;20200;-64
2022/03/16 05:41:30;;;;;;;21.23;9.67;;;;;;;6.27;58.26;95145.22;5033450;28;20214;-63
2022/03/16 05:43:55;;;;;;;12.83;7.00;;;;;;;5.95;60.22;95108.47;5032681;28;20234;-60
2022/03/16 05:46:21;;;;;;;11.17;7.43;;;;;;;6.04;61.13;95099.53;5033218;28;20205;-62
2022/03/16 05:48:47;;;;;;;19.33;8.53;;;;;;;6.12;59.03;95113.31;5033704;28;20269;-62
2022/03/16 05:51:12;;;;;;;16.73;7.63;;;;;;;6.12;69.36;95125.91;5015322;28;20690;-60
2022/03/16 05:53:38;;;;;;;17.63;7.47;;;;;;;6.30;61.11;95203.06;5032841;28;20188;-63
2022/03/16 05:56:04;;;;;;;16.10;7.30;;;;;;;6.29;58.33;95219.13;5014836;28;20205;-61
2022/03/16 05:58:30;;;;;;;16.23;7.40;;;;;;;6.21;70.50;95074.91;5032854;28;20184;-64
2022/03/16 06:00:55;;;;;;;18.70;9.93;;;;;;;6.45;78.63;95134.00;5032846;28;20569;-63
2022/03/16 06:03:21;;;;;;;17.47;8.70;;;;;;;6.86;82.14;95138.22;5032845;28;20172;-59
2022/03/16 06:05:46;;;;;;;19.60;8.97;;;;;;;7.16;66.26;95363.81;5032722;28;20241;-64
2022/03/16 06:08:12;;;;;;;17.97;9.00;;;;;;;6.97;64.08;95322.84;5015109;28;20262;-65
2022/03/16 06:10:39;;;;;;;22.33;9.87;;;;;;;6.82;72.31;95162.03;5032720;28;20290;-62
2022/03/16 06:13:05;;;;;;;15.80;8.63;;;;;;;7.09;64.72;95324.66;5032913;28;20190;-65
2022/03/16 06:15:38;;;;;;;23.47;9.57;;;;;;;6.91;64.12;95297.94;5032820;28;20229;-61
2022/03/16 06:18:04;;;;;;;23.07;10.97;;;;;;;6.79;67.47;95228.72;5015328;28;20252;-62
2022/03/16 06:20:30;;;;;;;24.07;11.53;;;;;;;6.95;67.90;95219.31;5032396;28;20235;-60
2022/03/16 06:22:55;;;;;;;27.13;11.73;;;;;;;7.12;68.12;95225.84;5033095;28;20190;-60
2022/03/16 06:25:24;;;;;;;23.37;10.97;;;;;;;7.47;61.60;95389.66;5032455;28;20217;-60
2022/03/16 06:27:50;;;;;;;20.53;10.63;;;;;;;7.35;58.77;95389.63;5032934;28;20265;-64
2022/03/16 06:30:16;;;;;;;22.53;11.87;;;;;;;7.02;60.47;95358.75;5031349;28;20205;-63
2022/03/16 06:32:45;;;;;;;20.23;10.87;;;;;;;6.85;63.37;95293.25;5032605;28;20224;-62
2022/03/16 06:35:11;;;;;;;24.40;12.27;;;;;;;6.75;62.47;95298.84;5032313;28;20233;-62
2022/03/16 06:37:36;;;;;;;30.07;12.23;;;;;;;6.70;64.95;95255.38;5032802;28;20602;-63
2022/03/16 06:40:03;;;;;;;24.03;11.47;;;;;;;6.90;64.34;95266.00;5032029;28;20180;-63
2022/03/16 06:42:29;;;;;;;28.00;11.63;;;;;;;6.97;63.66;95292.53;5014548;28;20189;-60
2022/03/16 06:44:54;;;;;;;29.17;12.27;;;;;;;7.15;62.18;95320.00;5032225;28;20224;-62
2022/03/16 06:47:20;;;;;;;34.03;13.77;;;;;;;7.01;62.27;95311.66;5032271;28;20209;-61
2022/03/16 06:49:45;;;;;;;29.90;13.97;;;;;;;6.84;62.73;95296.69;5014612;28;20174;-64
2022/03/16 06:52:11;;;;;;;29.23;13.53;;;;;;;6.83;63.21;95292.53;5038449;23;20240;-64
2022/03/16 06:54:37;;;;;;;42.77;16.67;;;;;;;6.97;62.38;95312.75;5032039;28;20185;-62
2022/03/16 06:57:03;;;;;;;38.13;18.70;;;;;;;7.13;61.73;95323.56;5032147;28;20205;-63
2022/03/16 06:59:28;;;;;;;59.20;23.40;;;;;;;6.75;62.46;95292.97;5031693;28;20296;-63
2022/03/16 07:01:54;;;;;;;45.00;22.93;;;;;;;6.38;64.51;95274.13;5032330;28;20205;-64
2022/03/16 07:04:19;;;;;;;54.43;25.07;;;;;;;6.53;63.20;95275.75;5031713;28;20260;-65
2022/03/16 07:06:51;;;;;;;57.37;24.60;;;;;;;6.58;63.21;95278.84;5032187;28;20209;-64
2022/03/16 07:09:17;;;;;;;57.67;26.07;;;;;;;6.76;64.19;95271.88;5032072;28;20194;-62
2022/03/16 07:11:43;;;;;;;66.13;26.00;;;;;;;6.72;63.38;95270.44;5031502;28;20213;-61
2022/03/16 07:16:52;;;;;;;67.80;29.23;;;;;;;6.96;62.81;95273.19;5032140;28;20263;-61
2022/03/16 07:19:17;;;;;;;65.77;28.30;;;;;;;6.98;62.86;95284.84;5031650;28;20178;-62
2022/03/16 07:21:43;;;;;;;69.47;27.63;;;;;;;6.87;62.13;95291.47;5014188;28;20202;-64
2022/03/16 07:24:08;;;;;;;62.87;26.13;;;;;;;6.61;63.60;95252.56;5031402;28;20196;-65
2022/03/16 07:26:34;;;;;;;53.37;22.00;;;;;;;6.49;62.63;95273.50;5031416;28;20205;-64
2022/03/16 07:29:00;;;;;;;40.80;19.27;;;;;;;6.68;62.21;95282.44;5013913;28;20180;-62
2022/03/16 07:31:25;;;;;;;49.30;19.33;;;;;;;6.72;61.98;95296.53;5031829;28;20211;-64
2022/03/16 07:33:51;;;;;;;43.20;18.30;;;;;;;6.76;62.01;95297.97;5031617;28;20193;-62
2022/03/16 07:36:16;;;;;;;38.67;18.30;;;;;;;6.87;61.89;95301.56;5031576;28;20694;-62
2022/03/16 07:38:42;;;;;;;43.23;18.60;;;;;;;6.97;61.84;95300.09;5031522;28;20224;-62
2022/03/16 07:41:07;;;;;;;39.57;16.80;;;;;;;6.92;60.82;95307.97;5031608;28;20679;-65
2022/03/16 07:43:33;;;;;;;39.67;15.13;;;;;;;7.01;59.96;95327.63;5013571;28;20190;-61
2022/03/16 07:45:58;;;;;;;35.10;14.43;;;;;;;7.12;59.22;95334.56;5031385;28;20681;-63
2022/03/16 07:48:24;;;;;;;32.83;14.23;;;;;;;7.28;58.70;95348.72;5013563;28;20189;-63
2022/03/16 07:50:50;;;;;;;27.80;14.80;;;;;;;7.44;57.22;95376.41;5031306;28;20206;-62
2022/03/16 07:53:16;;;;;;;32.97;14.33;;;;;;;7.27;59.23;95344.53;5031272;28;20268;-62
2022/03/16 07:55:42;;;;;;;26.03;14.00;;;;;;;7.38;57.71;95366.66;5031609;28;20201;-64
2022/03/16 07:58:07;;;;;;;20.13;13.37;;;;;;;7.20;57.98;95355.13;5013502;28;20170;-61
2022/03/16 08:00:33;;;;;;;32.27;14.43;;;;;;;7.25;57.99;95363.28;5013608;28;20206;-63
2022/03/16 08:03:01;;;;;;;27.37;13.93;;;;;;;7.43;57.08;95372.25;5031588;28;20175;-61
2022/03/16 08:05:27;;;;;;;35.63;14.03;;;;;;;7.48;56.39;95391.31;5031125;28;20218;-61
2022/03/16 08:07:53;;;;;;;34.83;13.93;;;;;;;7.54;56.22;95365.63;5015240;28;20579;-61
2022/03/16 08:10:19;;;;;;;33.87;13.30;;;;;;;7.77;56.42;95391.25;5035217;28;20326;-65
2022/03/16 08:12:45;;;;;;;30.83;14.57;;;;;;;7.56;56.24;95373.94;5035138;28;20185;-63
2022/03/16 08:15:10;;;;;;;28.40;13.17;;;;;;;7.77;55.46;95392.06;5035081;28;20562;-63
2022/03/16 08:17:36;;;;;;;23.07;11.30;;;;;;;7.95;55.04;95416.22;5035041;28;20201;-62
2022/03/16 08:20:02;;;;;;;26.40;11.73;;;;;;;8.00;53.15;95428.59;5016937;28;20725;-61
2022/03/16 08:22:36;;;;;;;23.60;11.00;;;;;;;7.90;53.70;95418.22;5016846;28;20190;-65
2022/03/16 08:25:07;;;;;;;24.87;10.80;;;;;;;8.01;54.50;95402.38;5016771;28;20218;-61
2022/03/16 08:27:33;;;;;;;21.67;11.20;;;;;;;7.96;53.28;95434.78;5034610;28;20182;-61
2022/03/16 08:29:59;;;;;;;28.23;11.87;;;;;;;8.07;52.61;95425.59;5034408;28;20179;-65
2022/03/16 08:32:25;;;;;;;21.27;10.57;;;;;;;8.27;50.59;95472.47;5016817;28;20190;-65
2022/03/16 08:34:51;;;;;;;20.97;11.57;;;;;;;8.09;50.63;95438.97;5034561;28;20183;-60
2022/03/16 08:37:18;;;;;;;30.73;12.53;;;;;;;7.89;52.79;95401.44;5034576;28;20524;-63
2022/03/16 08:39:44;;;;;;;32.23;13.07;;;;;;;7.99;53.63;95361.97;5016854;28;20678;-62
2022/03/16 08:42:11;;;;;;;30.00;13.60;;;;;;;8.28;52.70;95383.72;5034825;28;20225;-64
2022/03/16 08:44:37;;;;;;;25.33;13.30;;;;;;;8.48;52.95;95365.53;5016573;28;20217;-64
2022/03/16 08:47:03;;;;;;;27.13;12.77;;;;;;;8.75;53.06;95372.22;5034779;28;20202;-65
2022/03/16 08:49:29;;;;;;;23.53;11.33;;;;;;;8.73;52.40;95379.94;5033162;28;20193;-63
2022/03/16 08:51:57;;;;;;;19.97;11.00;;;;;;;8.59;50.69;95429.91;5016497;28;20250;-64
2022/03/16 08:54:22;;;;;;;25.43;11.50;;;;;;;8.48;52.18;95385.78;5016529;28;20186;-62
2022/03/16 08:56:48;;;;;;;19.90;9.70;;;;;;;8.60;50.59;95439.97;5034585;28;20212;-61
2022/03/16 08:59:14;;;;;;;22.83;11.70;;;;;;;8.73;49.42;95457.69;5034266;28;20682;-61
2022/03/16 09:01:39;;;;;;;21.97;11.63;;;;;;;8.95;48.67;95465.53;5034413;28;20213;-62
2022/03/16 09:04:05;;;;;;;24.57;11.90;;;;;;;9.29;48.57;95480.19;5033944;28;20571;-61
2022/03/16 09:06:31;;;;;;;24.30;12.17;;;;;;;9.20;45.82;95516.28;5033791;28;20708;-60
2022/03/16 09:08:56;;;;;;;24.17;10.53;;;;;;;9.06;48.35;95440.28;5034025;28;20186;-64
2022/03/16 09:11:22;;;;;;;24.77;11.67;;;;;;;9.03;48.74;95438.75;5034306;28;20570;-62
2022/03/16 09:13:47;;;;;;;30.63;12.50;;;;;;;9.12;48.00;95457.66;5033945;28;20201;-65
2022/03/16 09:16:16;;;;;;;25.90;9.80;;;;;;;9.22;46.79;95482.31;5034063;28;20206;-61
2022/03/16 09:18:41;;;;;;;19.03;10.90;;;;;;;9.09;47.29;95458.66;5034082;28;20171;-63
2022/03/16 09:21:07;;;;;;;21.10;12.20;;;;;;;8.94;47.88;95436.03;5034134;28;20209;-61
2022/03/16 09:23:33;;;;;;;20.30;11.30;;;;;;;9.06;47.16;95455.50;5033698;28;20189;-62
2022/03/16 09:25:59;;;;;;;22.00;10.67;;;;;;;9.04;48.35;95431.97;5033876;28;20218;-61
2022/03/16 09:28:25;;;;;;;30.33;11.00;;;;;;;8.96;47.21;95452.78;5033887;28;20261;-62
2022/03/16 09:30:51;;;;;;;27.93;12.00;;;;;;;9.16;47.31;95459.06;5015831;28;20206;-63
2022/03/16 09:33:17;;;;;;;26.87;11.30;;;;;;;9.20;47.82;95430.03;5033659;28;20709;-61
2022/03/16 09:35:44;;;;;;;24.53;11.73;;;;;;;9.08;47.49;95456.22;5033703;28;20206;-62
2022/03/16 09:38:12;;;;;;;22.30;12.13;;;;;;;9.18;47.29;95452.16;5033492;28;20224;-63
2022/03/16 09:40:38;;;;;;;30.33;12.60;;;;;;;8.85;48.01;95437.44;5033545;28;20198;-64
2022/03/16 09:43:09;;;;;;;26.40;12.63;;;;;;;9.26;47.06;95455.81;5033737;28;20184;-64
2022/03/16 09:45:54;;;;;;;27.73;12.70;;;;;;;9.25;47.49;95450.84;5033690;28;20222;-61
2022/03/16 09:48:26;;;;;;;33.37;12.23;;;;;;;9.58;46.97;95470.59;5015226;28;20282;-61
2022/03/16 09:50:53;;;;;;;31.60;12.53;;;;;;;9.78;45.86;95500.53;5033280;28;20582;-61
2022/03/16 09:53:20;;;;;;;29.23;13.77;;;;;;;10.17;45.35;95494.47;5033392;28;20237;-62
2022/03/16 09:55:46;;;;;;;28.80;12.87;;;;;;;10.18;44.97;95501.97;5033277;28;20209;-61
2022/03/16 09:58:11;;;;;;;27.90;12.47;;;;;;;10.00;45.68;95481.16;5033374;28;20726;-64
2022/03/16 10:00:38;;;;;;;31.13;14.23;;;;;;;10.03;46.12;95453.03;5031902;28;20214;-62
2022/03/16 10:03:04;;;;;;;35.53;14.43;;;;;;;9.93;46.35;95448.69;5033013;28;20237;-62
2022/03/16 10:05:31;;;;;;;29.87;14.77;;;;;;;9.92;46.32;95455.50;5015183;28;20229;-62
2022/03/16 10:08:02;;;;;;;29.43;13.27;;;;;;;10.05;46.58;95424.97;5033017;28;20571;-63
2022/03/16 10:13:23;;;;;;;42.57;15.83;;;;;;;9.97;47.40;95405.22;5013350;28;20194;-63
2022/03/16 10:15:52;;;;;;;32.67;15.30;;;;;;;10.02;47.43;95392.97;5012986;28;20230;-61
2022/03/16 10:18:23;;;;;;;29.53;14.60;;;;;;;10.06;46.26;95441.81;5011953;28;20195;-61
2022/03/16 10:20:51;;;;;;;39.30;14.63;;;;;;;9.72;47.98;95379.88;5012866;28;20202;-64
2022/03/16 10:23:21;;;;;;;31.00;14.03;;;;;;;9.67;45.88;95434.44;5013035;28;20648;-63
2022/03/16 10:25:54;;;;;;;39.47;15.17;;;;;;;9.27;46.63;95405.91;5012548;28;20221;-62
2022/03/16 10:28:24;;;;;;;33.80;14.63;;;;;;;9.29;47.08;95404.84;5013052;28;20274;-65
2022/03/16 10:30:57;;;;;;;37.57;16.73;;;;;;;9.00;47.22;95373.06;5012168;28;20199;-60
2022/03/16 10:33:44;;;;;;;31.60;14.73;;;;;;;9.02;47.63;95368.69;4995771;28;20596;-60
2022/03/16 10:36:11;;;;;;;31.67;14.50;;;;;;;9.32;47.44;95378.47;5012874;28;20672;-64
2022/03/16 10:38:37;;;;;;;28.03;15.03;;;;;;;8.76;48.08;95356.94;5012542;28;20226;-61
2022/03/16 10:46:34;;;;;;;40.50;15.73;;;;;;;9.04;48.13;95358.44;5012604;28;20222;-62
2022/03/16 10:46:52;;;;;;;37.37;16.27;;;;;;;9.42;47.82;95371.03;5012351;28;20272;-61
2022/03/16 10:49:20;;;;;;;32.50;15.40;;;;;;;9.59;48.05;95366.44;5012751;28;20182;-63
2022/03/16 10:51:59;;;;;;;24.87;14.80;;;;;;;9.67;47.70;95384.50;5012333;28;20203;-62
2022/03/16 10:54:26;;;;;;;40.73;16.77;;;;;;;9.63;48.42;95349.25;5012325;28;20197;-61
2022/03/16 10:56:53;;;;;;;30.13;17.43;;;;;;;9.96;48.14;95360.38;5012528;28;20282;-62
2022/03/16 10:59:20;;;;;;;39.50;18.53;;;;;;;9.88;48.70;95342.34;5012679;28;20249;-61
2022/03/16 11:01:48;;;;;;;40.67;17.83;;;;;;;9.98;48.00;95358.56;5011988;28;20207;-62
2022/03/16 11:04:14;;;;;;;34.20;18.13;;;;;;;10.06;47.01;95384.22;4994578;28;20273;-62
2022/03/16 11:06:40;;;;;;;46.57;19.37;;;;;;;9.88;47.92;95349.97;5012056;28;20198;-62
2022/03/16 11:09:09;;;;;;;32.80;17.33;;;;;;;10.06;48.21;95332.59;5012112;28;20199;-62
2022/03/16 11:14:20;;;;;;;45.80;21.87;;;;;;;10.37;49.33;95310.91;5012564;28;20560;-60
2022/03/16 11:16:46;;;;;;;48.20;21.13;;;;;;;10.49;48.79;95327.78;5011817;28;20199;-64
2022/03/16 11:19:17;;;;;;;47.50;22.70;;;;;;;10.43;48.51;95329.06;5011640;28;20278;-62
2022/03/16 11:21:55;;;;;;;40.07;19.73;;;;;;;10.22;46.64;95386.50;5012037;28;20264;-64
2022/03/16 11:24:26;;;;;;;40.07;19.97;;;;;;;9.98;47.72;95325.53;4994181;28;20226;-62
2022/03/16 11:27:35;;;;;;;48.60;19.53;;;;;;;9.86;49.31;95262.94;5011675;28;20198;-62
2022/03/16 11:30:21;;;;;;;46.27;21.40;;;;;;;9.72;50.64;95219.94;5012186;28;20237;-62
2022/03/16 11:32:46;;;;;;;57.70;21.47;;;;;;;9.93;49.82;95246.34;5011850;28;20183;-63
2022/03/16 11:35:14;;;;;;;44.93;19.63;;;;;;;10.20;48.63;95271.47;5012194;28;20215;-63
2022/03/16 11:37:43;;;;;;;41.07;19.63;;;;;;;10.35;48.71;95289.88;5011738;28;20269;-62